Leupp Corner, Arizona
Current Conditions -  °F | °C
As of 8:56 AM on Friday 28 Nov 2014 (Local Time) from KINW Reporting Station
Clear Clear  
Wind Chill: 29°   Ceiling: Unl
Heat Index: 36°   Visibility: 10mi
Dew Point: 13°   Wind: 9mph
Humidity: 39%   Direction: 110°ESE
Pressure: 30.26"   Gusts: NA
Location:  35.1934°N, 110.361°W
Report Text: KINW 281556Z AUTO 11008KT 10SM CLR 02/M11 A3026 RMK AO2 SLP251 T00221106
Loading
Personal Weather Stations






























Interactive Weather Map New forecast layout! Learn more

10-Day Weather Forecast

Advertisements
Track Severe Weather on mobile